sensor_id;sensor_type;location;lat;lon;timestamp;P1;durP1;ratioP1;P2;durP2;ratioP2
21501;SDS011;27639;48.674;9.242;2024-03-07T00:00:05;33.90;;;20.73;;
21501;SDS011;27639;48.674;9.242;2024-03-07T00:02:39;31.13;;;21.33;;
21501;SDS011;27639;48.674;9.242;2024-03-07T00:05:09;33.03;;;21.80;;
21501;SDS011;27639;48.674;9.242;2024-03-07T00:07:35;32.45;;;21.98;;
21501;SDS011;27639;48.674;9.242;2024-03-07T00:10:02;35.08;;;21.63;;
21501;SDS011;27639;48.674;9.242;2024-03-07T00:12:28;33.53;;;21.83;;
21501;SDS011;27639;48.674;9.242;2024-03-07T00:14:55;34.22;;;21.70;;
21501;SDS011;27639;48.674;9.242;2024-03-07T00:17:20;34.75;;;21.73;;
21501;SDS011;27639;48.674;9.242;2024-03-07T00:19:47;33.72;;;20.98;;
21501;SDS011;27639;48.674;9.242;2024-03-07T00:22:13;33.22;;;21.10;;
21501;SDS011;27639;48.674;9.242;2024-03-07T00:24:39;31.85;;;20.70;;
21501;SDS011;27639;48.674;9.242;2024-03-07T00:27:05;32.92;;;22.08;;
21501;SDS011;27639;48.674;9.242;2024-03-07T00:29:31;32.22;;;20.95;;
21501;SDS011;27639;48.674;9.242;2024-03-07T00:32:00;33.08;;;20.63;;
21501;SDS011;27639;48.674;9.242;2024-03-07T00:34:26;31.30;;;20.88;;
21501;SDS011;27639;48.674;9.242;2024-03-07T00:36:51;29.58;;;21.30;;
21501;SDS011;27639;48.674;9.242;2024-03-07T00:39:17;36.15;;;22.60;;
21501;SDS011;27639;48.674;9.242;2024-03-07T00:41:44;35.72;;;22.55;;
21501;SDS011;27639;48.674;9.242;2024-03-07T00:44:10;34.08;;;22.52;;
21501;SDS011;27639;48.674;9.242;2024-03-07T00:46:36;33.67;;;22.55;;
21501;SDS011;27639;48.674;9.242;2024-03-07T00:49:02;35.03;;;23.13;;
21501;SDS011;27639;48.674;9.242;2024-03-07T00:51:28;36.30;;;23.13;;
21501;SDS011;27639;48.674;9.242;2024-03-07T00:53:54;34.97;;;22.98;;
21501;SDS011;27639;48.674;9.242;2024-03-07T00:56:20;34.78;;;23.52;;
21501;SDS011;27639;48.674;9.242;2024-03-07T00:58:47;38.60;;;24.65;;
21501;SDS011;27639;48.674;9.242;2024-03-07T01:01:13;34.40;;;23.63;;
21501;SDS011;27639;48.674;9.242;2024-03-07T01:03:40;39.50;;;24.00;;
21501;SDS011;27639;48.674;9.242;2024-03-07T01:06:06;34.95;;;23.77;;
21501;SDS011;27639;48.674;9.242;2024-03-07T01:08:32;36.28;;;23.85;;
21501;SDS011;27639;48.674;9.242;2024-03-07T01:10:57;34.78;;;24.02;;
21501;SDS011;27639;48.674;9.242;2024-03-07T01:13:23;36.60;;;24.95;;
21501;SDS011;27639;48.674;9.242;2024-03-07T01:15:49;36.25;;;23.75;;
21501;SDS011;27639;48.674;9.242;2024-03-07T01:18:15;37.42;;;25.52;;
21501;SDS011;27639;48.674;9.242;2024-03-07T01:20:42;36.10;;;24.23;;
21501;SDS011;27639;48.674;9.242;2024-03-07T01:23:07;35.90;;;24.35;;
21501;SDS011;27639;48.674;9.242;2024-03-07T01:25:33;36.13;;;23.90;;
21501;SDS011;27639;48.674;9.242;2024-03-07T01:28:00;37.53;;;25.83;;
21501;SDS011;27639;48.674;9.242;2024-03-07T01:30:25;37.38;;;24.60;;
21501;SDS011;27639;48.674;9.242;2024-03-07T01:32:53;36.40;;;25.55;;
21501;SDS011;27639;48.674;9.242;2024-03-07T01:35:19;40.50;;;26.77;;
21501;SDS011;27639;48.674;9.242;2024-03-07T01:37:45;35.85;;;25.75;;
21501;SDS011;27639;48.674;9.242;2024-03-07T01:40:10;39.78;;;26.05;;
21501;SDS011;27639;48.674;9.242;2024-03-07T01:42:36;38.85;;;25.90;;
21501;SDS011;27639;48.674;9.242;2024-03-07T01:45:02;37.97;;;25.73;;
21501;SDS011;27639;48.674;9.242;2024-03-07T01:47:28;38.30;;;26.67;;
21501;SDS011;27639;48.674;9.242;2024-03-07T01:49:54;39.72;;;26.15;;
21501;SDS011;27639;48.674;9.242;2024-03-07T01:52:19;38.28;;;26.25;;
21501;SDS011;27639;48.674;9.242;2024-03-07T01:54:47;38.65;;;24.58;;
21501;SDS011;27639;48.674;9.242;2024-03-07T01:57:13;35.72;;;24.58;;
21501;SDS011;27639;48.674;9.242;2024-03-07T01:59:41;37.53;;;25.73;;
21501;SDS011;27639;48.674;9.242;2024-03-07T02:02:08;37.50;;;25.05;;
21501;SDS011;27639;48.674;9.242;2024-03-07T02:04:33;38.08;;;25.52;;
21501;SDS011;27639;48.674;9.242;2024-03-07T02:06:59;39.00;;;26.27;;
21501;SDS011;27639;48.674;9.242;2024-03-07T02:09:24;40.50;;;26.55;;
21501;SDS011;27639;48.674;9.242;2024-03-07T02:11:50;37.85;;;25.45;;
21501;SDS011;27639;48.674;9.242;2024-03-07T02:14:16;37.72;;;25.80;;
21501;SDS011;27639;48.674;9.242;2024-03-07T02:16:41;40.28;;;26.42;;
21501;SDS011;27639;48.674;9.242;2024-03-07T02:19:07;37.72;;;26.15;;
21501;SDS011;27639;48.674;9.242;2024-03-07T02:21:35;39.35;;;27.02;;
21501;SDS011;27639;48.674;9.242;2024-03-07T02:24:01;39.42;;;26.17;;
21501;SDS011;27639;48.674;9.242;2024-03-07T02:26:26;40.13;;;27.27;;
21501;SDS011;27639;48.674;9.242;2024-03-07T02:28:52;38.88;;;27.10;;
21501;SDS011;27639;48.674;9.242;2024-03-07T02:31:17;41.70;;;27.92;;
21501;SDS011;27639;48.674;9.242;2024-03-07T02:33:44;40.80;;;26.80;;
21501;SDS011;27639;48.674;9.242;2024-03-07T02:36:09;38.88;;;26.45;;
21501;SDS011;27639;48.674;9.242;2024-03-07T02:38:35;44.90;;;27.20;;
21501;SDS011;27639;48.674;9.242;2024-03-07T02:41:00;41.63;;;28.63;;
21501;SDS011;27639;48.674;9.242;2024-03-07T02:43:26;36.40;;;25.58;;
21501;SDS011;27639;48.674;9.242;2024-03-07T02:45:52;39.53;;;26.20;;
21501;SDS011;27639;48.674;9.242;2024-03-07T02:48:18;40.80;;;27.08;;
21501;SDS011;27639;48.674;9.242;2024-03-07T02:50:43;42.08;;;27.60;;
21501;SDS011;27639;48.674;9.242;2024-03-07T02:53:09;41.67;;;27.65;;
21501;SDS011;27639;48.674;9.242;2024-03-07T02:55:34;45.63;;;29.27;;
21501;SDS011;27639;48.674;9.242;2024-03-07T02:58:00;39.55;;;27.15;;
21501;SDS011;27639;48.674;9.242;2024-03-07T03:00:26;39.22;;;26.08;;
21501;SDS011;27639;48.674;9.242;2024-03-07T03:02:51;40.72;;;26.27;;
21501;SDS011;27639;48.674;9.242;2024-03-07T03:05:17;39.70;;;26.17;;
21501;SDS011;27639;48.674;9.242;2024-03-07T03:07:43;40.25;;;27.25;;
21501;SDS011;27639;48.674;9.242;2024-03-07T03:12:45;38.13;;;24.52;;
21501;SDS011;27639;48.674;9.242;2024-03-07T03:15:12;40.00;;;26.63;;
21501;SDS011;27639;48.674;9.242;2024-03-07T03:17:40;38.75;;;26.17;;
21501;SDS011;27639;48.674;9.242;2024-03-07T03:20:05;38.63;;;26.27;;
21501;SDS011;27639;48.674;9.242;2024-03-07T03:22:43;40.95;;;27.15;;
21501;SDS011;27639;48.674;9.242;2024-03-07T03:25:09;42.90;;;26.55;;
21501;SDS011;27639;48.674;9.242;2024-03-07T03:27:35;38.67;;;25.77;;
21501;SDS011;27639;48.674;9.242;2024-03-07T03:30:01;42.35;;;26.40;;
21501;SDS011;27639;48.674;9.242;2024-03-07T03:32:28;41.92;;;26.45;;
21501;SDS011;27639;48.674;9.242;2024-03-07T03:34:54;38.53;;;26.27;;
21501;SDS011;27639;48.674;9.242;2024-03-07T03:37:20;42.65;;;27.05;;
21501;SDS011;27639;48.674;9.242;2024-03-07T03:39:46;40.92;;;26.58;;
21501;SDS011;27639;48.674;9.242;2024-03-07T03:42:12;43.72;;;27.27;;
21501;SDS011;27639;48.674;9.242;2024-03-07T03:44:37;43.90;;;26.85;;
21501;SDS011;27639;48.674;9.242;2024-03-07T03:47:03;41.22;;;26.83;;
21501;SDS011;27639;48.674;9.242;2024-03-07T03:49:29;40.25;;;27.02;;
21501;SDS011;27639;48.674;9.242;2024-03-07T03:51:54;42.63;;;28.10;;
21501;SDS011;27639;48.674;9.242;2024-03-07T03:54:20;44.65;;;27.17;;
21501;SDS011;27639;48.674;9.242;2024-03-07T03:56:45;41.13;;;26.67;;
21501;SDS011;27639;48.674;9.242;2024-03-07T03:59:11;39.33;;;25.90;;
21501;SDS011;27639;48.674;9.242;2024-03-07T04:01:36;39.03;;;26.40;;
21501;SDS011;27639;48.674;9.242;2024-03-07T04:04:02;43.38;;;26.77;;
21501;SDS011;27639;48.674;9.242;2024-03-07T04:06:29;39.90;;;26.50;;
21501;SDS011;27639;48.674;9.242;2024-03-07T04:08:54;39.83;;;25.83;;
21501;SDS011;27639;48.674;9.242;2024-03-07T04:11:20;40.85;;;26.10;;
21501;SDS011;27639;48.674;9.242;2024-03-07T04:13:46;40.97;;;26.98;;
21501;SDS011;27639;48.674;9.242;2024-03-07T04:16:11;38.33;;;25.85;;
21501;SDS011;27639;48.674;9.242;2024-03-07T04:18:37;38.17;;;25.98;;
21501;SDS011;27639;48.674;9.242;2024-03-07T04:21:02;42.13;;;27.13;;
21501;SDS011;27639;48.674;9.242;2024-03-07T04:23:28;40.08;;;25.50;;
21501;SDS011;27639;48.674;9.242;2024-03-07T04:25:54;43.17;;;26.20;;
21501;SDS011;27639;48.674;9.242;2024-03-07T04:28:21;38.15;;;25.27;;
21501;SDS011;27639;48.674;9.242;2024-03-07T04:30:47;41.88;;;26.63;;
21501;SDS011;27639;48.674;9.242;2024-03-07T04:33:14;39.45;;;26.33;;
21501;SDS011;27639;48.674;9.242;2024-03-07T04:35:40;39.53;;;25.00;;
21501;SDS011;27639;48.674;9.242;2024-03-07T04:38:05;40.75;;;26.10;;
21501;SDS011;27639;48.674;9.242;2024-03-07T04:40:36;40.20;;;25.10;;
21501;SDS011;27639;48.674;9.242;2024-03-07T04:43:02;39.13;;;25.13;;
21501;SDS011;27639;48.674;9.242;2024-03-07T04:45:28;40.40;;;26.42;;
21501;SDS011;27639;48.674;9.242;2024-03-07T04:47:54;39.67;;;25.50;;
21501;SDS011;27639;48.674;9.242;2024-03-07T04:50:19;40.28;;;26.30;;
21501;SDS011;27639;48.674;9.242;2024-03-07T04:52:45;39.03;;;25.80;;
21501;SDS011;27639;48.674;9.242;2024-03-07T04:55:11;39.15;;;25.23;;
21501;SDS011;27639;48.674;9.242;2024-03-07T04:57:38;38.58;;;26.08;;
21501;SDS011;27639;48.674;9.242;2024-03-07T05:00:08;34.78;;;23.75;;
21501;SDS011;27639;48.674;9.242;2024-03-07T05:02:41;40.75;;;24.80;;
21501;SDS011;27639;48.674;9.242;2024-03-07T05:05:07;39.30;;;26.08;;
21501;SDS011;27639;48.674;9.242;2024-03-07T05:07:33;40.15;;;25.70;;
21501;SDS011;27639;48.674;9.242;2024-03-07T05:10:01;41.65;;;26.48;;
21501;SDS011;27639;48.674;9.242;2024-03-07T05:12:27;38.50;;;25.42;;
21501;SDS011;27639;48.674;9.242;2024-03-07T05:14:53;37.75;;;23.48;;
21501;SDS011;27639;48.674;9.242;2024-03-07T05:17:18;41.25;;;25.15;;
21501;SDS011;27639;48.674;9.242;2024-03-07T05:19:44;38.97;;;24.50;;
21501;SDS011;27639;48.674;9.242;2024-03-07T05:22:10;38.03;;;24.33;;
21501;SDS011;27639;48.674;9.242;2024-03-07T05:24:40;39.15;;;23.70;;
21501;SDS011;27639;48.674;9.242;2024-03-07T05:27:07;38.85;;;24.63;;
21501;SDS011;27639;48.674;9.242;2024-03-07T05:29:36;36.33;;;23.23;;
21501;SDS011;27639;48.674;9.242;2024-03-07T05:32:19;32.67;;;22.40;;
21501;SDS011;27639;48.674;9.242;2024-03-07T05:34:46;34.70;;;22.05;;
21501;SDS011;27639;48.674;9.242;2024-03-07T05:37:11;37.08;;;23.08;;
21501;SDS011;27639;48.674;9.242;2024-03-07T05:39:38;35.25;;;22.85;;
21501;SDS011;27639;48.674;9.242;2024-03-07T05:42:04;32.78;;;22.15;;
21501;SDS011;27639;48.674;9.242;2024-03-07T05:44:31;35.10;;;22.98;;
21501;SDS011;27639;48.674;9.242;2024-03-07T05:46:57;33.58;;;21.90;;
21501;SDS011;27639;48.674;9.242;2024-03-07T05:49:23;34.25;;;22.02;;
21501;SDS011;27639;48.674;9.242;2024-03-07T05:51:49;33.80;;;20.95;;
21501;SDS011;27639;48.674;9.242;2024-03-07T05:54:14;34.55;;;22.23;;
21501;SDS011;27639;48.674;9.242;2024-03-07T05:56:40;30.52;;;20.55;;
21501;SDS011;27639;48.674;9.242;2024-03-07T05:59:07;32.00;;;20.70;;
21501;SDS011;27639;48.674;9.242;2024-03-07T06:01:36;31.75;;;21.13;;
21501;SDS011;27639;48.674;9.242;2024-03-07T06:04:02;32.88;;;21.13;;
21501;SDS011;27639;48.674;9.242;2024-03-07T06:06:32;31.33;;;20.73;;
21501;SDS011;27639;48.674;9.242;2024-03-07T06:08:58;33.00;;;20.73;;
21501;SDS011;27639;48.674;9.242;2024-03-07T06:11:34;31.48;;;20.60;;
21501;SDS011;27639;48.674;9.242;2024-03-07T06:14:03;30.40;;;20.65;;
21501;SDS011;27639;48.674;9.242;2024-03-07T06:16:35;33.75;;;22.58;;
21501;SDS011;27639;48.674;9.242;2024-03-07T06:19:02;32.03;;;21.67;;
21501;SDS011;27639;48.674;9.242;2024-03-07T06:21:28;33.08;;;22.13;;
21501;SDS011;27639;48.674;9.242;2024-03-07T06:23:57;30.77;;;21.02;;
21501;SDS011;27639;48.674;9.242;2024-03-07T06:26:27;31.23;;;21.05;;
21501;SDS011;27639;48.674;9.242;2024-03-07T06:29:14;30.90;;;19.90;;
21501;SDS011;27639;48.674;9.242;2024-03-07T06:31:43;32.95;;;21.00;;
21501;SDS011;27639;48.674;9.242;2024-03-07T06:34:12;30.25;;;20.67;;
21501;SDS011;27639;48.674;9.242;2024-03-07T06:36:38;31.23;;;19.70;;
21501;SDS011;27639;48.674;9.242;2024-03-07T06:39:05;30.05;;;19.77;;
21501;SDS011;27639;48.674;9.242;2024-03-07T06:41:32;31.08;;;20.58;;
21501;SDS011;27639;48.674;9.242;2024-03-07T06:43:58;33.15;;;21.20;;
21501;SDS011;27639;48.674;9.242;2024-03-07T06:46:24;31.13;;;20.88;;
21501;SDS011;27639;48.674;9.242;2024-03-07T06:48:49;29.45;;;20.85;;
21501;SDS011;27639;48.674;9.242;2024-03-07T06:51:16;31.95;;;20.17;;
21501;SDS011;27639;48.674;9.242;2024-03-07T06:53:42;30.17;;;19.92;;
21501;SDS011;27639;48.674;9.242;2024-03-07T06:56:08;30.40;;;20.02;;
21501;SDS011;27639;48.674;9.242;2024-03-07T06:58:35;30.98;;;20.13;;
21501;SDS011;27639;48.674;9.242;2024-03-07T07:01:01;29.65;;;19.65;;
21501;SDS011;27639;48.674;9.242;2024-03-07T07:03:32;31.63;;;19.98;;
21501;SDS011;27639;48.674;9.242;2024-03-07T07:05:57;30.15;;;19.65;;
21501;SDS011;27639;48.674;9.242;2024-03-07T07:08:23;31.80;;;19.98;;
21501;SDS011;27639;48.674;9.242;2024-03-07T07:10:49;28.88;;;18.58;;
21501;SDS011;27639;48.674;9.242;2024-03-07T07:13:15;29.33;;;19.50;;
21501;SDS011;27639;48.674;9.242;2024-03-07T07:15:41;28.58;;;19.60;;
21501;SDS011;27639;48.674;9.242;2024-03-07T07:18:08;29.05;;;18.27;;
21501;SDS011;27639;48.674;9.242;2024-03-07T07:20:35;30.88;;;20.05;;
21501;SDS011;27639;48.674;9.242;2024-03-07T07:23:01;29.25;;;19.63;;
21501;SDS011;27639;48.674;9.242;2024-03-07T07:25:28;29.48;;;19.58;;
21501;SDS011;27639;48.674;9.242;2024-03-07T07:27:54;28.67;;;19.98;;
21501;SDS011;27639;48.674;9.242;2024-03-07T07:30:20;30.70;;;20.08;;
21501;SDS011;27639;48.674;9.242;2024-03-07T07:32:51;28.30;;;19.02;;
21501;SDS011;27639;48.674;9.242;2024-03-07T07:35:17;28.15;;;18.70;;
21501;SDS011;27639;48.674;9.242;2024-03-07T07:37:44;29.02;;;19.02;;
21501;SDS011;27639;48.674;9.242;2024-03-07T07:40:11;29.33;;;18.85;;
21501;SDS011;27639;48.674;9.242;2024-03-07T07:42:42;27.75;;;19.35;;
21501;SDS011;27639;48.674;9.242;2024-03-07T07:45:08;29.63;;;19.92;;
21501;SDS011;27639;48.674;9.242;2024-03-07T07:47:38;29.77;;;18.95;;
21501;SDS011;27639;48.674;9.242;2024-03-07T07:50:07;28.05;;;18.27;;
21501;SDS011;27639;48.674;9.242;2024-03-07T07:52:42;31.92;;;20.17;;
21501;SDS011;27639;48.674;9.242;2024-03-07T07:55:09;30.23;;;19.65;;
21501;SDS011;27639;48.674;9.242;2024-03-07T07:57:40;28.63;;;19.30;;
21501;SDS011;27639;48.674;9.242;2024-03-07T08:00:07;29.15;;;19.00;;
21501;SDS011;27639;48.674;9.242;2024-03-07T08:02:34;30.15;;;20.08;;
21501;SDS011;27639;48.674;9.242;2024-03-07T08:05:00;30.05;;;19.95;;
21501;SDS011;27639;48.674;9.242;2024-03-07T08:07:26;30.42;;;20.40;;
21501;SDS011;27639;48.674;9.242;2024-03-07T08:09:52;31.92;;;20.13;;
21501;SDS011;27639;48.674;9.242;2024-03-07T08:12:17;32.30;;;20.67;;
21501;SDS011;27639;48.674;9.242;2024-03-07T08:14:43;31.48;;;21.15;;
21501;SDS011;27639;48.674;9.242;2024-03-07T08:17:09;30.55;;;20.98;;
21501;SDS011;27639;48.674;9.242;2024-03-07T08:19:36;32.17;;;21.08;;
21501;SDS011;27639;48.674;9.242;2024-03-07T08:22:01;33.25;;;20.50;;
21501;SDS011;27639;48.674;9.242;2024-03-07T08:24:27;34.67;;;21.63;;
21501;SDS011;27639;48.674;9.242;2024-03-07T08:26:53;32.17;;;20.85;;
21501;SDS011;27639;48.674;9.242;2024-03-07T08:29:18;33.03;;;21.50;;
21501;SDS011;27639;48.674;9.242;2024-03-07T08:31:44;30.02;;;19.83;;
21501;SDS011;27639;48.674;9.242;2024-03-07T08:34:09;34.88;;;22.13;;
21501;SDS011;27639;48.674;9.242;2024-03-07T08:36:35;33.90;;;22.13;;
21501;SDS011;27639;48.674;9.242;2024-03-07T08:39:01;33.58;;;22.02;;
21501;SDS011;27639;48.674;9.242;2024-03-07T08:41:29;31.35;;;20.67;;
21501;SDS011;27639;48.674;9.242;2024-03-07T08:43:56;34.40;;;22.25;;
21501;SDS011;27639;48.674;9.242;2024-03-07T08:46:22;30.85;;;21.10;;
21501;SDS011;27639;48.674;9.242;2024-03-07T08:48:47;31.35;;;21.02;;
21501;SDS011;27639;48.674;9.242;2024-03-07T08:51:13;34.47;;;22.15;;
21501;SDS011;27639;48.674;9.242;2024-03-07T08:53:40;33.85;;;22.55;;
21501;SDS011;27639;48.674;9.242;2024-03-07T08:56:06;32.47;;;20.42;;
21501;SDS011;27639;48.674;9.242;2024-03-07T08:58:31;33.67;;;22.08;;
21501;SDS011;27639;48.674;9.242;2024-03-07T09:00:57;35.63;;;21.60;;
21501;SDS011;27639;48.674;9.242;2024-03-07T09:03:23;33.97;;;22.13;;
21501;SDS011;27639;48.674;9.242;2024-03-07T09:05:50;32.17;;;20.65;;
21501;SDS011;27639;48.674;9.242;2024-03-07T09:08:17;35.03;;;22.23;;
21501;SDS011;27639;48.674;9.242;2024-03-07T09:10:42;36.95;;;23.73;;
21501;SDS011;27639;48.674;9.242;2024-03-07T09:13:09;33.90;;;21.52;;
21501;SDS011;27639;48.674;9.242;2024-03-07T09:15:34;35.78;;;23.23;;
21501;SDS011;27639;48.674;9.242;2024-03-07T09:18:02;35.15;;;22.55;;
21501;SDS011;27639;48.674;9.242;2024-03-07T09:20:28;31.75;;;21.77;;
21501;SDS011;27639;48.674;9.242;2024-03-07T09:22:56;32.83;;;22.23;;
21501;SDS011;27639;48.674;9.242;2024-03-07T09:25:21;32.38;;;22.02;;
21501;SDS011;27639;48.674;9.242;2024-03-07T09:27:48;34.83;;;23.58;;
21501;SDS011;27639;48.674;9.242;2024-03-07T09:30:14;36.38;;;22.75;;
21501;SDS011;27639;48.674;9.242;2024-03-07T09:32:43;32.83;;;22.60;;
21501;SDS011;27639;48.674;9.242;2024-03-07T09:35:10;32.28;;;21.85;;
21501;SDS011;27639;48.674;9.242;2024-03-07T09:37:37;35.45;;;23.85;;
21501;SDS011;27639;48.674;9.242;2024-03-07T09:40:04;36.92;;;23.15;;
21501;SDS011;27639;48.674;9.242;2024-03-07T09:42:30;32.20;;;22.10;;
21501;SDS011;27639;48.674;9.242;2024-03-07T09:44:58;33.45;;;22.98;;
21501;SDS011;27639;48.674;9.242;2024-03-07T09:47:26;35.17;;;22.48;;
21501;SDS011;27639;48.674;9.242;2024-03-07T09:49:52;38.05;;;23.08;;
21501;SDS011;27639;48.674;9.242;2024-03-07T09:52:18;33.17;;;22.65;;
21501;SDS011;27639;48.674;9.242;2024-03-07T09:54:45;35.63;;;22.98;;
21501;SDS011;27639;48.674;9.242;2024-03-07T09:57:11;32.85;;;21.98;;
21501;SDS011;27639;48.674;9.242;2024-03-07T09:59:38;33.47;;;21.95;;
21501;SDS011;27639;48.674;9.242;2024-03-07T10:02:06;33.58;;;22.85;;
21501;SDS011;27639;48.674;9.242;2024-03-07T10:04:44;32.65;;;23.15;;
21501;SDS011;27639;48.674;9.242;2024-03-07T10:07:14;34.45;;;22.83;;
21501;SDS011;27639;48.674;9.242;2024-03-07T10:09:41;35.63;;;24.02;;
21501;SDS011;27639;48.674;9.242;2024-03-07T10:12:07;37.60;;;24.10;;
21501;SDS011;27639;48.674;9.242;2024-03-07T10:14:50;30.05;;;18.25;;
21501;SDS011;27639;48.674;9.242;2024-03-07T10:17:19;30.33;;;18.75;;
21501;SDS011;27639;48.674;9.242;2024-03-07T10:19:48;27.83;;;18.55;;
21501;SDS011;27639;48.674;9.242;2024-03-07T10:22:18;33.28;;;19.30;;
21501;SDS011;27639;48.674;9.242;2024-03-07T10:24:50;29.52;;;19.42;;
21501;SDS011;27639;48.674;9.242;2024-03-07T10:27:20;30.92;;;20.02;;
21501;SDS011;27639;48.674;9.242;2024-03-07T10:29:49;31.23;;;19.52;;
21501;SDS011;27639;48.674;9.242;2024-03-07T10:32:20;29.33;;;19.50;;
21501;SDS011;27639;48.674;9.242;2024-03-07T10:34:50;29.47;;;19.03;;
21501;SDS011;27639;48.674;9.242;2024-03-07T10:37:16;30.23;;;20.00;;
21501;SDS011;27639;48.674;9.242;2024-03-07T10:39:45;32.30;;;20.48;;
21501;SDS011;27639;48.674;9.242;2024-03-07T10:42:13;33.90;;;21.13;;
21501;SDS011;27639;48.674;9.242;2024-03-07T10:44:43;32.17;;;19.25;;
21501;SDS011;27639;48.674;9.242;2024-03-07T10:47:19;32.70;;;20.38;;
21501;SDS011;27639;48.674;9.242;2024-03-07T10:50:07;33.08;;;19.50;;
21501;SDS011;27639;48.674;9.242;2024-03-07T10:55:15;32.03;;;21.63;;
21501;SDS011;27639;48.674;9.242;2024-03-07T10:58:01;34.97;;;21.35;;
21501;SDS011;27639;48.674;9.242;2024-03-07T11:00:34;34.65;;;21.40;;
21501;SDS011;27639;48.674;9.242;2024-03-07T11:03:04;34.75;;;21.40;;
21501;SDS011;27639;48.674;9.242;2024-03-07T11:05:34;35.65;;;22.80;;
21501;SDS011;27639;48.674;9.242;2024-03-07T11:08:00;31.98;;;20.75;;
21501;SDS011;27639;48.674;9.242;2024-03-07T11:10:53;35.47;;;22.00;;
21501;SDS011;27639;48.674;9.242;2024-03-07T11:13:19;34.65;;;20.90;;
21501;SDS011;27639;48.674;9.242;2024-03-07T11:15:46;34.47;;;20.00;;
21501;SDS011;27639;48.674;9.242;2024-03-07T11:18:13;33.38;;;19.48;;
21501;SDS011;27639;48.674;9.242;2024-03-07T11:20:39;33.53;;;20.35;;
21501;SDS011;27639;48.674;9.242;2024-03-07T11:23:49;33.10;;;19.80;;
21501;SDS011;27639;48.674;9.242;2024-03-07T11:26:07;32.95;;;18.67;;
21501;SDS011;27639;48.674;9.242;2024-03-07T11:28:34;33.03;;;19.15;;
21501;SDS011;27639;48.674;9.242;2024-03-07T11:33:40;32.80;;;19.80;;
21501;SDS011;27639;48.674;9.242;2024-03-07T11:36:10;30.15;;;19.33;;
21501;SDS011;27639;48.674;9.242;2024-03-07T11:38:37;32.00;;;19.10;;
21501;SDS011;27639;48.674;9.242;2024-03-07T11:41:03;36.58;;;19.58;;
21501;SDS011;27639;48.674;9.242;2024-03-07T11:43:31;32.10;;;19.92;;
21501;SDS011;27639;48.674;9.242;2024-03-07T11:45:57;31.90;;;20.13;;
21501;SDS011;27639;48.674;9.242;2024-03-07T11:48:24;30.73;;;19.77;;
21501;SDS011;27639;48.674;9.242;2024-03-07T11:50:49;32.28;;;20.65;;
21501;SDS011;27639;48.674;9.242;2024-03-07T11:53:16;33.35;;;20.08;;
21501;SDS011;27639;48.674;9.242;2024-03-07T11:55:42;33.38;;;21.25;;
21501;SDS011;27639;48.674;9.242;2024-03-07T11:58:20;34.15;;;20.33;;
21501;SDS011;27639;48.674;9.242;2024-03-07T12:00:46;35.17;;;22.08;;
21501;SDS011;27639;48.674;9.242;2024-03-07T12:03:14;34.35;;;22.00;;
21501;SDS011;27639;48.674;9.242;2024-03-07T12:05:43;36.65;;;23.13;;
21501;SDS011;27639;48.674;9.242;2024-03-07T12:08:10;35.80;;;23.08;;
21501;SDS011;27639;48.674;9.242;2024-03-07T12:10:39;37.38;;;23.33;;
21501;SDS011;27639;48.674;9.242;2024-03-07T12:13:12;33.53;;;22.83;;
21501;SDS011;27639;48.674;9.242;2024-03-07T12:15:41;34.85;;;23.60;;
21501;SDS011;27639;48.674;9.242;2024-03-07T12:18:08;39.90;;;23.90;;
21501;SDS011;27639;48.674;9.242;2024-03-07T12:20:38;39.15;;;22.88;;
21501;SDS011;27639;48.674;9.242;2024-03-07T12:23:06;38.47;;;23.80;;
21501;SDS011;27639;48.674;9.242;2024-03-07T12:25:37;33.53;;;19.95;;
21501;SDS011;27639;48.674;9.242;2024-03-07T12:28:10;37.50;;;24.15;;
21501;SDS011;27639;48.674;9.242;2024-03-07T12:33:16;40.22;;;25.15;;
21501;SDS011;27639;48.674;9.242;2024-03-07T12:35:43;37.92;;;25.40;;
21501;SDS011;27639;48.674;9.242;2024-03-07T12:38:10;42.08;;;24.75;;
21501;SDS011;27639;48.674;9.242;2024-03-07T12:40:38;35.92;;;24.77;;
21501;SDS011;27639;48.674;9.242;2024-03-07T12:43:16;36.08;;;23.88;;
21501;SDS011;27639;48.674;9.242;2024-03-07T12:45:44;35.28;;;23.85;;
21501;SDS011;27639;48.674;9.242;2024-03-07T12:48:12;35.90;;;23.90;;
21501;SDS011;27639;48.674;9.242;2024-03-07T12:50:39;35.25;;;23.05;;
21501;SDS011;27639;48.674;9.242;2024-03-07T12:53:06;38.08;;;24.55;;
21501;SDS011;27639;48.674;9.242;2024-03-07T12:55:37;39.78;;;25.38;;
21501;SDS011;27639;48.674;9.242;2024-03-07T12:58:06;36.35;;;24.30;;
21501;SDS011;27639;48.674;9.242;2024-03-07T13:00:34;36.65;;;24.88;;
21501;SDS011;27639;48.674;9.242;2024-03-07T13:03:00;36.00;;;25.23;;
21501;SDS011;27639;48.674;9.242;2024-03-07T13:05:26;38.28;;;25.35;;
21501;SDS011;27639;48.674;9.242;2024-03-07T13:07:52;40.58;;;26.02;;
21501;SDS011;27639;48.674;9.242;2024-03-07T13:10:18;35.88;;;24.98;;
21501;SDS011;27639;48.674;9.242;2024-03-07T13:12:45;35.72;;;23.20;;
21501;SDS011;27639;48.674;9.242;2024-03-07T13:15:12;36.47;;;23.88;;
21501;SDS011;27639;48.674;9.242;2024-03-07T13:17:37;34.88;;;22.45;;
21501;SDS011;27639;48.674;9.242;2024-03-07T13:20:04;38.83;;;26.17;;
21501;SDS011;27639;48.674;9.242;2024-03-07T13:22:36;34.70;;;23.45;;
21501;SDS011;27639;48.674;9.242;2024-03-07T13:25:09;34.13;;;22.88;;
21501;SDS011;27639;48.674;9.242;2024-03-07T13:27:41;37.75;;;23.60;;
21501;SDS011;27639;48.674;9.242;2024-03-07T13:30:16;38.00;;;24.38;;
21501;SDS011;27639;48.674;9.242;2024-03-07T13:32:48;33.50;;;23.15;;
21501;SDS011;27639;48.674;9.242;2024-03-07T13:35:14;33.42;;;23.60;;
21501;SDS011;27639;48.674;9.242;2024-03-07T13:37:40;33.95;;;24.08;;
21501;SDS011;27639;48.674;9.242;2024-03-07T13:40:06;33.58;;;22.75;;
21501;SDS011;27639;48.674;9.242;2024-03-07T13:42:47;33.65;;;23.30;;
21501;SDS011;27639;48.674;9.242;2024-03-07T13:45:24;36.17;;;23.48;;
21501;SDS011;27639;48.674;9.242;2024-03-07T13:47:56;35.42;;;23.45;;
21501;SDS011;27639;48.674;9.242;2024-03-07T13:50:24;33.78;;;23.80;;
21501;SDS011;27639;48.674;9.242;2024-03-07T13:52:51;33.30;;;23.08;;
21501;SDS011;27639;48.674;9.242;2024-03-07T13:55:33;36.28;;;22.98;;
21501;SDS011;27639;48.674;9.242;2024-03-07T13:58:24;34.72;;;23.05;;
21501;SDS011;27639;48.674;9.242;2024-03-07T14:06:50;31.08;;;21.75;;
21501;SDS011;27639;48.674;9.242;2024-03-07T14:26:48;33.78;;;22.25;;
21501;SDS011;27639;48.674;9.242;2024-03-07T14:30:07;34.05;;;23.30;;
21501;SDS011;27639;48.674;9.242;2024-03-07T14:32:48;36.03;;;23.47;;
21501;SDS011;27639;48.674;9.242;2024-03-07T14:35:22;33.35;;;23.02;;
21501;SDS011;27639;48.674;9.242;2024-03-07T14:40:28;35.45;;;24.10;;
21501;SDS011;27639;48.674;9.242;2024-03-07T14:42:54;31.70;;;24.08;;
21501;SDS011;27639;48.674;9.242;2024-03-07T14:45:23;35.50;;;23.63;;
21501;SDS011;27639;48.674;9.242;2024-03-07T14:47:53;37.33;;;22.92;;
21501;SDS011;27639;48.674;9.242;2024-03-07T14:50:19;34.30;;;23.45;;
21501;SDS011;27639;48.674;9.242;2024-03-07T14:52:46;34.58;;;23.75;;
21501;SDS011;27639;48.674;9.242;2024-03-07T14:55:13;34.00;;;22.20;;
21501;SDS011;27639;48.674;9.242;2024-03-07T14:57:39;32.65;;;22.05;;
21501;SDS011;27639;48.674;9.242;2024-03-07T15:00:10;34.17;;;22.52;;